Latest Weather Observations for Lockhart River

IDQ60801

Issued at 10:05 pm EST Wednesday 22 October 2014 (issued every 30 minutes, with the page automatically refreshed every 10 minutes)

About weather observations | Map of weather stations | Latest weather observations for QLD | Other Formats
Station Details ID: 028008 Name: LOCKHART RIVER AIRPORT Lat: -12.79 Lon: 143.30 Height: 18.5 m
Data from the previous 72 hours. | See also: Recent months at Lockhart River
Date/Time
EST
Temp
°C
App
Temp
°C
Dew
Point
Rel
Hum
%
Delta-T
°C
Wind Press
QNH
hPa
Press
MSL
hPa
Rain
since 9 am
mm
Dir
 
Spd
km/h
Gust
km/h
Spd
kts
Gust
kts
22/10:00pm 24.9 24.8 19.9 74 3.2 ESE 20 35 11 19 1016.5 - 1.6
22/09:30pm 24.7 24.9 20.2 76 2.9 ESE 19 26 10 14 1016.4 - 1.6
22/09:00pm 24.8 24.5 20.3 76 2.9 ESE 22 35 12 19 1016.2 1016.1 1.6
22/08:30pm 24.7 24.8 20.4 77 2.8 ESE 20 30 11 16 1016.0 - 1.6
22/08:00pm 24.7 24.8 20.4 77 2.8 ESE 20 32 11 17 1015.6 - 1.6
22/07:30pm 24.8 24.6 20.5 77 2.8 ESE 22 30 12 16 1015.3 - 1.6
22/07:00pm 24.7 24.9 20.2 76 2.9 ESE 19 28 10 15 1015.0 - 1.6
22/06:30pm 24.9 26.0 20.4 76 2.9 ESE 15 28 8 15 1014.7 - 1.6
22/06:00pm 25.3 24.9 19.4 70 3.8 ESE 20 30 11 16 1014.3 1014.2 1.6
22/05:30pm 26.1 25.8 19.5 67 4.3 ESE 20 33 11 18 1014.0 - 1.6
22/05:00pm 26.6 24.9 19.7 66 4.5 SE 28 35 15 19 1013.7 - 1.6
22/04:30pm 26.5 25.5 19.6 66 4.5 ESE 24 33 13 18 1013.7 - 1.4
22/04:00pm 25.2 23.1 19.8 72 3.5 SE 30 50 16 27 1013.9 - 1.4
22/03:55pm 25.5 23.6 19.4 69 3.9 ESE 28 50 15 27 1014.0 - 1.4
22/03:30pm 25.0 24.2 20.9 78 2.7 SE 26 37 14 20 1013.9 - 1.4
22/03:00pm 26.3 26.4 19.9 68 4.2 ESE 19 32 10 17 1014.0 1013.9 1.4
22/02:30pm 25.8 26.8 21.7 78 2.7 ESE 19 24 10 13 1014.1 - 1.4
22/02:00pm 24.5 24.1 21.0 81 2.3 ESE 24 32 13 17 1014.5 - 1.4
22/01:30pm 24.9 24.8 20.8 78 2.7 E 22 33 12 18 1014.8 - 1.2
22/01:00pm 27.1 25.8 19.9 64 4.7 ESE 26 39 14 21 1015.2 - 0.8
22/12:30pm 28.3 26.8 20.3 62 5.3 ESE 28 41 15 22 1015.4 - 0.8
22/12:00pm 27.4 25.5 21.0 68 4.2 ESE 32 44 17 24 1015.9 1015.8 0.8
22/11:30am 25.5 26.4 21.6 79 2.6 ESE 19 30 10 16 1016.2 - 0.8
22/11:00am 24.9 26.4 21.2 80 2.4 ESE 15 26 8 14 1016.5 - 0.4
22/10:30am 29.4 30.7 24.0 72 3.7 SSE 24 59 13 32 1016.7 - 0.2
22/10:00am - - - - - SE 17 24 9 13 1016.8 - 0.2
22/09:30am - - - - - ESE 28 41 15 22 1016.8 - 0.0
22/09:00am 25.6 24.7 20.6 74 3.3 ESE 26 35 14 19 1016.8 1016.7 6.0
22/08:30am 25.2 25.0 21.3 79 2.6 SE 24 35 13 19 1016.7 - 6.0
22/08:00am 24.2 24.6 20.9 82 2.2 ESE 20 28 11 15 1016.4 - 6.0
22/07:37am 24.4 26.7 22.8 91 1.1 ESE 15 20 8 11 1016.2 - 6.0
22/07:30am 23.8 25.4 22.1 90 1.1 ESE 17 24 9 13 1016.0 - 5.8
22/07:27am 23.7 24.8 22.0 90 1.1 ESE 19 24 10 13 1015.9 - 5.8
22/07:00am 24.0 25.8 21.9 88 1.4 ESE 15 24 8 13 1015.6 - 3.6
22/06:30am 24.0 24.2 21.3 85 1.8 SE 22 39 12 21 1015.2 - 3.6
22/06:00am 24.2 25.2 21.1 83 2.0 ESE 17 24 9 13 1015.0 1014.9 3.6
22/05:30am 23.9 25.3 21.0 84 1.9 ESE 15 22 8 12 1014.7 - 3.6
22/05:00am 23.7 25.2 21.2 86 1.6 ESE 15 26 8 14 1014.5 - 3.6
22/04:30am 23.3 24.1 21.4 89 1.3 ESE 19 28 10 15 1014.4 - 3.6
22/04:24am 23.4 23.3 21.5 89 1.3 ESE 24 37 13 20 1014.4 - 3.6
22/04:10am 24.1 24.4 20.8 82 2.2 ESE 20 30 11 16 1014.4 - 0.0
22/04:00am 24.8 25.1 20.5 77 2.8 ESE 19 26 10 14 1014.4 - 0.0
22/03:30am 24.7 24.3 20.2 76 2.9 ESE 22 32 12 17 1014.3 - 0.0
22/03:00am 24.9 24.3 20.4 76 2.9 SE 24 39 13 21 1014.3 1014.2 0.0
22/02:30am 25.1 23.5 20.1 74 3.2 ESE 28 37 15 20 1014.6 - 0.0
22/02:00am 25.0 25.3 20.5 76 2.9 SE 19 28 10 15 1014.8 - 0.0
22/01:30am 25.1 25.4 20.4 75 3.1 ESE 19 30 10 16 1015.2 - 0.0
22/01:00am 25.1 26.2 20.4 75 3.1 ESE 15 22 8 12 1015.6 - 0.0
22/12:30am 25.2 24.1 20.2 74 3.3 ESE 26 35 14 19 1015.9 - 0.0
22/12:00am 25.2 24.7 20.0 73 3.4 ESE 22 32 12 17 1016.4 1016.3 0.0
 
Date/Time
EST
Temp
°C
App
Temp
°C
Dew
Point
Rel
Hum
%
Delta-T
°C
Wind Press
QNH
hPa
Press
MSL
hPa
Rain
since 9 am
mm
Dir
 
Spd
km/h
Gust
km/h
Spd
kts
Gust
kts
21/11:30pm 25.3 24.5 20.1 73 3.4 ESE 24 35 13 19 1016.8 - 0.0
21/11:00pm 25.3 24.9 20.1 73 3.4 ESE 22 30 12 16 1016.9 - 0.0
21/10:30pm 25.3 24.5 20.1 73 3.4 SE 24 33 13 18 1017.1 - 0.0
21/10:00pm 25.3 24.9 20.1 73 3.4 ESE 22 35 12 19 1017.0 - 0.0
21/09:30pm 25.4 24.6 20.0 72 3.5 ESE 24 37 13 20 1016.7 - 0.0
21/09:00pm 25.6 25.0 20.4 73 3.4 ESE 24 39 13 21 1016.5 1016.4 0.0
21/08:30pm 25.4 24.6 20.0 72 3.5 ESE 24 37 13 20 1016.2 - 0.0
21/08:00pm 25.5 24.8 19.6 70 3.8 ESE 22 33 12 18 1016.2 - 0.0
21/07:30pm 25.6 25.7 20.4 73 3.4 ESE 20 30 11 16 1016.1 - 0.0
21/07:00pm 25.8 25.9 20.4 72 3.5 ESE 20 32 11 17 1016.0 - 0.0
21/06:30pm 26.0 25.2 20.1 70 3.8 SE 24 33 13 18 1015.5 - 0.0
21/06:00pm 26.2 24.9 19.8 68 4.1 SE 26 37 14 20 1015.1 1015.0 0.0
21/05:30pm 26.3 24.7 19.2 65 4.6 ESE 26 39 14 21 1014.7 - 0.0
21/05:00pm 26.9 25.3 20.0 66 4.5 SE 28 39 15 21 1014.3 - 0.0
21/04:30pm 27.5 24.9 19.6 62 5.1 ESE 32 43 17 23 1014.1 - 0.0
21/04:00pm 27.7 25.3 19.2 60 5.5 SE 30 41 16 22 1014.0 - 0.0
21/03:30pm 29.0 26.8 19.6 57 6.1 ESE 30 39 16 21 1014.1 - 0.0
21/03:00pm 28.5 26.1 19.1 56 6.1 ESE 30 43 16 23 1014.2 1014.1 0.0
21/02:30pm 28.8 26.2 18.6 54 6.6 ESE 30 43 16 23 1014.3 - 0.0
21/02:08pm 28.7 25.8 18.8 55 6.4 ESE 32 50 17 27 1014.4 - 0.0
21/02:00pm 28.6 25.4 18.7 55 6.4 ESE 33 48 18 26 1014.5 - 0.0
21/01:52pm 29.1 26.4 18.5 52 6.8 ESE 30 48 16 26 1014.4 - 0.0
21/01:30pm 30.2 27.6 18.6 49 7.5 ESE 30 41 16 22 1014.7 - 0.0
21/01:00pm 29.4 27.6 18.8 53 6.8 ESE 26 43 14 23 1015.2 - 0.0
21/12:45pm 29.0 26.7 18.4 52 6.8 ESE 28 48 15 26 1015.4 - 0.0
21/12:30pm 29.8 27.6 19.5 54 6.7 SE 30 41 16 22 1015.6 - 0.0
21/12:00pm 29.8 27.3 19.8 55 6.6 SE 32 43 17 23 1016.2 1016.1 0.0
21/11:30am 28.3 25.5 19.0 57 6.0 SE 32 43 17 23 1016.6 - 0.0
21/11:00am 28.9 27.6 19.8 58 6.0 ESE 26 41 14 22 1016.8 - 0.0
21/10:30am 28.1 26.1 19.1 58 5.8 ESE 28 41 15 22 1016.9 - 0.0
21/10:00am 28.2 26.1 18.9 57 6.0 ESE 28 43 15 23 1017.0 - 0.0
21/09:30am 27.7 26.5 19.2 60 5.5 ESE 24 37 13 20 1016.7 - 0.0
21/09:20am 28.2 26.3 19.4 59 5.7 SE 28 46 15 25 1016.7 - 0.0
21/09:00am 27.3 24.8 18.9 60 5.4 SE 30 41 16 22 1016.7 1016.6 0.0
21/08:30am 28.6 26.3 20.1 60 5.6 SE 32 43 17 23 1016.6 - 0.0
21/08:00am 26.9 25.8 20.3 67 4.3 ESE 26 39 14 21 1016.4 - 0.0
21/07:30am 25.6 24.7 19.9 70 3.7 SE 24 33 13 18 1015.9 - 0.0
21/07:00am 25.2 25.1 20.0 73 3.4 SE 20 32 11 17 1015.5 - 0.0
21/06:30am 24.7 24.7 19.8 74 3.2 SE 19 22 10 12 1015.2 - 0.0
21/06:00am 24.2 24.5 19.7 76 2.9 SE 17 22 9 12 1014.9 1014.8 0.0
21/05:30am 24.4 23.4 19.7 75 3.0 SE 24 30 13 16 1014.8 - 0.0
21/05:00am 24.4 23.9 19.9 76 2.9 SE 22 30 12 16 1014.5 - 0.0
21/04:30am 24.5 24.0 20.0 76 2.9 ESE 22 37 12 20 1014.3 - 0.0
21/04:00am 24.6 24.6 20.1 76 2.9 SE 20 28 11 15 1014.2 - 0.0
21/03:30am 24.7 24.7 20.2 76 2.9 SE 20 32 11 17 1014.2 - 0.0
21/03:00am 24.6 24.6 20.1 76 2.9 SE 20 32 11 17 1014.3 1014.2 0.0
21/02:30am 24.8 24.0 20.1 75 3.0 SE 24 32 13 17 1014.5 - 0.0
21/02:00am 25.0 23.9 20.3 75 3.1 ESE 26 37 14 20 1014.8 - 0.0
21/01:30am 25.0 24.3 20.3 75 3.1 SE 24 35 13 19 1015.0 - 0.0
21/01:00am 25.1 23.9 20.1 74 3.2 ESE 26 39 14 21 1015.2 - 0.0
21/12:30am 25.2 23.6 20.0 73 3.4 ESE 28 39 15 21 1015.5 - 0.0
21/12:00am 25.2 24.7 20.0 73 3.4 ESE 22 33 12 18 1015.8 1015.7 0.0
 
Date/Time
EST
Temp
°C
App
Temp
°C
Dew
Point
Rel
Hum
%
Delta-T
°C
Wind Press
QNH
hPa
Press
MSL
hPa
Rain
since 9 am
mm
Dir
 
Spd
km/h
Gust
km/h
Spd
kts
Gust
kts
20/11:30pm 25.3 23.4 20.1 73 3.4 SE 30 39 16 21 1016.1 - 0.0
20/11:00pm 25.3 24.0 19.9 72 3.5 ESE 26 37 14 20 1016.2 - 0.0
20/10:30pm 25.5 24.0 20.3 73 3.4 SE 28 44 15 24 1016.2 - 0.0
20/10:00pm 25.5 24.1 20.5 74 3.3 ESE 28 39 15 21 1016.1 - 0.0
20/09:30pm 25.5 24.4 20.3 73 3.4 ESE 26 37 14 20 1015.8 - 0.0
20/09:00pm 25.7 24.2 20.3 72 3.5 SE 28 46 15 25 1015.6 1015.5 0.0
20/08:30pm 25.7 23.9 20.3 72 3.5 ESE 30 46 16 25 1015.4 - 0.0
20/08:27pm 25.7 24.2 20.3 72 3.5 SE 28 46 15 25 1015.4 - 0.0
20/08:00pm 25.7 24.2 20.3 72 3.5 SE 28 39 15 21 1015.1 - 0.0
20/07:48pm 25.7 24.2 20.3 72 3.5 ESE 28 46 15 25 1015.1 - 0.0
20/07:30pm 25.7 24.5 20.0 71 3.7 ESE 26 41 14 22 1014.9 - 0.0
20/07:00pm 25.9 24.7 20.0 70 3.8 SE 26 35 14 19 1014.7 - 0.0
20/06:30pm 26.0 24.4 20.1 70 3.8 SE 28 41 15 22 1014.4 - 0.0
20/06:00pm 26.0 24.4 20.1 70 3.8 SE 28 41 15 22 1014.0 1013.9 0.0
20/05:30pm 26.2 24.6 20.1 69 4.0 ESE 28 43 15 23 1013.7 - 0.0
20/05:00pm 26.6 24.0 20.0 67 4.3 SE 33 46 18 25 1013.4 - 0.0
20/04:53pm 26.6 25.0 20.0 67 4.3 ESE 28 46 15 25 1013.5 - 0.0
20/04:30pm 26.8 25.1 19.7 65 4.6 ESE 28 41 15 22 1013.5 - 0.0
20/04:00pm 27.2 25.1 19.8 64 4.8 ESE 30 41 16 22 1013.5 - 0.0
20/03:30pm 28.3 26.6 19.8 60 5.5 SE 28 39 15 21 1013.5 - 0.0
20/03:00pm 27.8 25.9 20.1 63 5.0 SE 30 41 16 22 1013.7 1013.6 0.0
20/02:39pm 27.7 25.9 20.3 64 4.9 ESE 30 48 16 26 1013.6 - 0.0
20/02:30pm 27.6 24.9 19.7 62 5.1 ESE 33 46 18 25 1013.8 - 0.0
20/02:00pm 28.6 26.4 20.3 60 5.5 ESE 32 43 17 23 1013.9 - 0.0
20/01:47pm 27.7 25.1 20.0 63 5.0 ESE 33 54 18 29 1014.1 - 0.0
20/01:30pm 27.7 25.7 19.2 60 5.5 ESE 28 41 15 22 1014.2 - 0.0
20/01:14pm 28.8 25.5 20.0 59 5.8 SE 37 56 20 30 1014.4 - 0.0
20/01:00pm 29.0 26.8 19.6 57 6.1 ESE 30 44 16 24 1014.7 - 0.0
20/12:30pm 29.2 26.6 19.8 57 6.2 ESE 33 48 18 26 1015.1 - 0.0
20/12:03pm 27.8 25.0 19.1 59 5.6 ESE 32 50 17 27 1015.4 - 0.0
20/12:00pm 28.1 25.8 19.3 58 5.7 ESE 30 46 16 25 1015.4 1015.3 0.0
20/11:30am 27.6 25.0 19.4 61 5.3 ESE 32 48 17 26 1015.8 - 0.0
20/11:04am 28.7 25.2 19.6 58 5.9 ESE 37 57 20 31 1016.1 - 0.0
20/11:00am 28.8 25.3 20.3 60 5.6 SE 39 52 21 28 1016.1 - 0.0
20/10:30am 28.2 25.9 20.2 62 5.3 ESE 32 48 17 26 1016.2 - 0.0
20/10:00am 28.0 25.5 19.8 61 5.3 ESE 32 50 17 27 1016.3 - 0.0
20/09:38am 27.7 25.9 20.3 64 4.9 ESE 30 48 16 26 1016.3 - 0.0
20/09:30am 27.6 25.0 19.9 63 5.0 ESE 33 48 18 26 1016.5 - 0.0
20/09:00am 27.2 24.2 19.8 64 4.8 ESE 35 50 19 27 1016.6 1016.5 0.0
20/08:31am 26.9 24.7 20.3 67 4.3 SE 32 50 17 27 1016.5 - 0.0
20/08:30am 26.5 24.1 19.9 67 4.3 SE 32 46 17 25 1016.5 - 0.0
20/08:25am 26.4 24.9 20.3 69 4.0 SE 28 46 15 25 1016.5 - 0.0
20/08:00am 26.4 24.2 20.3 69 4.0 SE 32 43 17 23 1016.3 - 0.0
20/07:30am 25.7 23.7 20.0 71 3.7 SE 30 43 16 23 1016.0 - 0.0
20/07:00am 25.6 23.8 20.4 73 3.4 SE 30 43 16 23 1015.5 - 0.0
20/06:30am 25.1 24.2 19.9 73 3.4 SE 24 37 13 20 1015.0 - 0.0
20/06:00am 25.0 24.9 20.0 74 3.2 ESE 20 35 11 19 1014.8 1014.7 0.0
20/05:30am 25.0 23.7 19.8 73 3.4 SE 26 39 14 21 1014.8 - 0.0
20/05:00am 25.0 23.6 19.6 72 3.5 SE 26 39 14 21 1014.4 - 0.0
20/04:30am 24.9 23.9 19.7 73 3.4 ESE 24 35 13 19 1014.2 - 0.0
20/04:00am 24.6 23.4 19.2 72 3.5 SE 24 35 13 19 1014.0 - 0.0
20/03:30am 24.6 22.9 19.0 71 3.6 ESE 26 35 14 19 1013.9 - 0.0
20/03:00am 24.9 24.3 19.7 73 3.4 SE 22 32 12 17 1014.1 1014.0 0.0
20/02:30am 24.9 23.4 19.5 72 3.5 SE 26 43 14 23 1014.2 - 0.0
20/02:00am 25.0 23.1 19.4 71 3.6 SE 28 39 15 21 1014.5 - 0.0
20/01:30am 25.0 22.8 19.6 72 3.5 ESE 30 43 16 23 1014.8 - 0.0
20/01:03am 25.0 23.2 19.6 72 3.5 ESE 28 48 15 26 1015.1 - 0.0
20/01:00am 25.0 23.7 19.8 73 3.4 ESE 26 48 14 26 1015.1 - 0.0
20/12:36am 25.0 23.2 19.6 72 3.5 ESE 28 46 15 25 1015.4 - 0.0
20/12:30am 24.9 24.3 19.7 73 3.4 ESE 22 33 12 18 1015.5 - 0.0
20/12:00am 25.0 22.8 19.6 72 3.5 SE 30 48 16 26 1015.8 1015.7 0.0
 
Date/Time
EST
Temp
°C
App
Temp
°C
Dew
Point
Rel
Hum
%
Delta-T
°C
Wind Press
QNH
hPa
Press
MSL
hPa
Rain
since 9 am
mm
Dir
 
Spd
km/h
Gust
km/h
Spd
kts
Gust
kts
19/11:55pm 25.1 23.0 19.7 72 3.5 SE 30 48 16 26 1015.9 - 0.0
19/11:30pm 25.1 23.7 19.7 72 3.5 ESE 26 39 14 21 1016.1 - 0.0
19/11:02pm 25.2 23.4 19.6 71 3.6 ESE 28 46 15 25 1016.5 - 0.0
19/11:00pm 25.3 23.2 19.7 71 3.6 ESE 30 46 16 25 1016.5 - 0.0
19/10:30pm 25.4 24.2 20.0 72 3.5 ESE 26 39 14 21 1016.6 - 0.0

Other Formats:

Comma delimited format used in spreadsheet applications
http://www.bom.gov.au/fwo/IDQ60801/IDQ60801.94186.axf

JavaScript Object Notation format (JSON) in row-major order
http://www.bom.gov.au/fwo/IDQ60801/IDQ60801.94186.json